createdAt,value
2018-02-09T00:00:27.553Z,112.03
2018-02-09T00:02:55.058Z,97.17
2018-02-09T00:05:23.310Z,105.07
2018-02-09T00:07:50.840Z,112.70
2018-02-09T00:10:18.326Z,107.23
2018-02-09T00:12:45.834Z,108.33
2018-02-09T00:15:13.310Z,113.33
2018-02-09T00:17:40.818Z,102.83
2018-02-09T00:20:08.302Z,112.33
2018-02-09T00:22:47.429Z,103.63
2018-02-09T00:25:15.670Z,88.87
2018-02-09T00:27:43.175Z,101.30
2018-02-09T00:30:11.427Z,109.20
2018-02-09T00:32:38.926Z,109.00
2018-02-09T00:35:07.179Z,109.97
2018-02-09T00:37:34.678Z,117.07
2018-02-09T00:40:02.164Z,108.23
2018-02-09T00:42:29.671Z,128.03
2018-02-09T00:44:57.155Z,113.13
2018-02-09T00:47:24.659Z,103.97
2018-02-09T00:49:52.141Z,92.03
2018-02-09T00:52:20.410Z,110.03
2018-02-09T00:54:47.891Z,95.30
2018-02-09T00:57:15.399Z,97.23
2018-02-09T00:59:42.887Z,101.10
2018-02-09T01:02:10.395Z,105.60
2018-02-09T01:04:37.874Z,118.93
2018-02-09T01:07:06.147Z,103.90
2018-02-09T01:09:33.626Z,106.40
2018-02-09T01:12:01.904Z,117.13
2018-02-09T01:14:29.394Z,102.43
2018-02-09T01:16:57.664Z,110.70
2018-02-09T01:19:25.151Z,94.67
2018-02-09T01:21:53.418Z,101.80
2018-02-09T01:24:20.919Z,115.43
2018-02-09T01:26:49.166Z,113.57
2018-02-09T01:29:16.674Z,116.37
2018-02-09T01:31:44.923Z,98.90
2018-02-09T01:34:12.430Z,110.03
2018-02-09T01:36:40.678Z,108.73
2018-02-09T01:39:08.183Z,97.70
2018-02-09T01:41:36.438Z,105.40
2018-02-09T01:44:03.946Z,103.13
2018-02-09T01:46:32.195Z,102.13
2018-02-09T01:48:59.710Z,116.90
2018-02-09T01:51:27.955Z,99.37
2018-02-09T01:53:55.460Z,104.27
2018-02-09T01:56:23.707Z,108.67
2018-02-09T01:58:51.207Z,101.90
2018-02-09T02:01:18.699Z,100.37
2018-02-09T02:03:46.979Z,112.27
2018-02-09T02:06:14.466Z,102.87
2018-02-09T02:08:41.970Z,105.63
2018-02-09T02:11:09.450Z,103.43
2018-02-09T02:13:36.955Z,105.20
2018-02-09T02:16:05.199Z,110.57
2018-02-09T02:18:32.698Z,107.57
2018-02-09T02:21:00.182Z,107.20
2018-02-09T02:23:28.442Z,121.10
2018-02-09T02:25:55.927Z,98.47
2018-02-09T02:28:23.435Z,102.13
2018-02-09T02:30:50.924Z,104.13
2018-02-09T02:33:18.424Z,104.87
2018-02-09T02:35:45.907Z,91.40
2018-02-09T02:38:13.408Z,106.93
2018-02-09T02:40:40.894Z,103.03
2018-02-09T02:43:08.404Z,109.50
2018-02-09T02:45:35.891Z,103.93
2018-02-09T02:48:04.174Z,97.67
2018-02-09T02:50:31.663Z,100.87
2018-02-09T02:52:59.920Z,98.77
2018-02-09T02:55:27.420Z,103.90
2018-02-09T02:57:54.928Z,99.93
2018-02-09T03:00:22.426Z,103.43
2018-02-09T03:02:49.932Z,89.50
2018-02-09T03:05:18.187Z,106.93
2018-02-09T03:07:45.686Z,94.87
2018-02-09T03:10:13.174Z,103.80
2018-02-09T03:12:40.684Z,99.77
2018-02-09T03:15:08.163Z,97.57
2018-02-09T03:17:35.654Z,97.50
2018-02-09T03:20:03.135Z,99.10
2018-02-09T03:22:31.410Z,112.00
2018-02-09T03:24:58.894Z,106.97
2018-02-09T03:27:27.170Z,105.00
2018-02-09T03:29:54.654Z,91.70
2018-02-09T03:32:22.140Z,106.93
2018-02-09T03:34:50.406Z,93.63
2018-02-09T03:37:17.887Z,99.53
2018-02-09T03:39:46.149Z,105.17
2018-02-09T03:42:13.638Z,104.10
2018-02-09T03:44:41.138Z,96.97
2018-02-09T03:47:08.623Z,106.23
2018-02-09T03:49:36.121Z,102.80
2018-02-09T03:52:03.613Z,103.10
2018-02-09T03:54:31.123Z,90.93
2018-02-09T03:56:58.606Z,100.50
2018-02-09T03:59:26.107Z,91.37
2018-02-09T04:01:53.587Z,99.17
2018-02-09T04:04:21.083Z,99.20
2018-02-09T04:06:49.335Z,96.10
2018-02-09T04:09:16.831Z,92.47
2018-02-09T04:11:45.078Z,100.43
2018-02-09T04:14:12.588Z,93.87
2018-02-09T04:16:40.830Z,104.83
2018-02-09T04:19:08.330Z,94.67
2018-02-09T04:21:35.819Z,99.13
2018-02-09T04:24:04.086Z,105.87
2018-02-09T04:26:31.575Z,97.83
2018-02-09T04:28:59.843Z,98.77
2018-02-09T04:31:27.323Z,96.23
2018-02-09T04:33:54.822Z,106.13
2018-02-09T04:36:22.305Z,96.97
2018-02-09T04:38:50.575Z,100.77
2018-02-09T04:41:18.826Z,90.90
2018-02-09T04:43:46.331Z,105.40
2018-02-09T04:46:14.578Z,106.27
2018-02-09T04:48:42.087Z,91.57
2018-02-09T04:51:10.336Z,94.93
2018-02-09T04:53:37.834Z,83.57
2018-02-09T04:56:06.085Z,91.17
2018-02-09T04:58:33.590Z,95.63
2018-02-09T05:01:01.835Z,105.57
2018-02-09T05:03:29.337Z,113.90
2018-02-09T05:05:56.823Z,103.47
2018-02-09T05:08:25.087Z,98.10
2018-02-09T05:10:52.575Z,108.43
2018-02-09T05:13:20.076Z,95.47
2018-02-09T05:15:47.562Z,93.90
2018-02-09T05:18:15.066Z,101.30
2018-02-09T05:20:42.554Z,102.30
2018-02-09T05:23:10.055Z,100.57
2018-02-09T05:25:37.536Z,104.57
2018-02-09T05:28:05.032Z,93.70
2018-02-09T05:30:32.507Z,101.37
2018-02-09T05:33:00.007Z,105.53
2018-02-09T05:35:27.496Z,105.70
2018-02-09T05:37:54.975Z,110.53
2018-02-09T05:40:22.470Z,100.33
2018-02-09T05:42:49.956Z,100.47
2018-02-09T05:45:17.450Z,97.40
2018-02-09T05:47:44.935Z,108.20
2018-02-09T05:50:13.203Z,113.20
2018-02-09T05:52:40.687Z,109.27
2018-02-09T05:55:08.958Z,113.80
2018-02-09T05:57:36.442Z,103.87
2018-02-09T06:00:04.702Z,114.80
2018-02-09T06:02:32.187Z,103.67
2018-02-09T06:04:59.691Z,103.77
2018-02-09T06:07:27.171Z,111.17
2018-02-09T06:09:54.666Z,111.20
2018-02-09T06:12:22.157Z,111.60
2018-02-09T06:14:49.663Z,105.60
2018-02-09T06:17:17.910Z,103.10
2018-02-09T06:19:45.411Z,96.63
2018-02-09T06:22:13.659Z,99.70
2018-02-09T06:24:41.162Z,103.07
2018-02-09T06:27:08.648Z,107.37
2018-02-09T06:29:36.914Z,97.07
2018-02-09T06:32:04.399Z,104.77
2018-02-09T06:34:32.667Z,95.50
2018-02-09T06:37:00.198Z,85.77
2018-02-09T06:39:27.700Z,98.53
2018-02-09T06:41:55.179Z,98.60
2018-02-09T06:44:23.611Z,100.03
2018-02-09T06:46:51.091Z,98.90
2018-02-09T06:49:18.614Z,84.13
2018-02-09T06:51:46.114Z,100.27
2018-02-09T06:54:13.631Z,88.60
2018-02-09T06:56:41.106Z,101.33
2018-02-09T06:59:08.629Z,100.17
2018-02-09T07:01:36.119Z,96.03
2018-02-09T07:04:03.615Z,90.73
2018-02-09T07:06:31.095Z,89.70
2018-02-09T07:08:58.590Z,87.37
2018-02-09T07:11:26.859Z,95.60
2018-02-09T07:13:54.359Z,99.90
2018-02-09T07:16:21.850Z,98.07
2018-02-09T07:18:49.357Z,92.37
2018-02-09T07:21:16.839Z,91.70
2018-02-09T07:23:44.351Z,94.33
2018-02-09T07:26:11.832Z,93.77
2018-02-09T07:28:39.328Z,88.20
2018-02-09T07:31:06.802Z,94.97
2018-02-09T07:33:34.293Z,97.27
2018-02-09T07:36:01.775Z,95.53
2018-02-09T07:38:29.271Z,103.13
2018-02-09T07:40:56.763Z,112.40
2018-02-09T07:43:24.243Z,93.23
2018-02-09T07:45:51.735Z,95.43
2018-02-09T07:48:19.214Z,101.80
2018-02-09T07:50:46.710Z,100.03
2018-02-09T07:53:14.969Z,105.73
2018-02-09T07:55:42.477Z,103.53
2018-02-09T07:58:09.950Z,100.03
2018-02-09T08:00:37.451Z,102.80
2018-02-09T08:03:04.934Z,100.97
2018-02-09T08:05:32.435Z,105.07
2018-02-09T08:08:00.679Z,108.80
2018-02-09T08:10:28.189Z,117.27
2018-02-09T08:12:55.667Z,110.80
2018-02-09T08:15:23.940Z,106.13
2018-02-09T08:17:51.423Z,107.47
2018-02-09T08:20:19.695Z,103.03
2018-02-09T08:22:47.179Z,112.57
2018-02-09T08:25:14.672Z,93.60
2018-02-09T08:27:42.146Z,90.63
2018-02-09T08:30:09.685Z,103.20
2018-02-09T08:32:37.134Z,95.87
2018-02-09T08:35:04.627Z,98.77
2018-02-09T08:37:32.108Z,118.83
2018-02-09T08:40:00.415Z,101.00
2018-02-09T08:42:27.891Z,111.77
2018-02-09T08:44:55.385Z,105.53
2018-02-09T08:47:22.869Z,106.50
2018-02-09T08:49:50.366Z,98.67
2018-02-09T08:52:17.850Z,102.10
2018-02-09T08:54:46.110Z,107.37
2018-02-09T08:57:13.594Z,106.63
2018-02-09T08:59:41.122Z,109.73
2018-02-09T09:02:08.590Z,93.53
2018-02-09T09:04:36.087Z,109.43
2018-02-09T09:07:03.562Z,105.37
2018-02-09T09:09:31.063Z,102.97
2018-02-09T09:11:59.313Z,117.10
2018-02-09T09:14:26.815Z,104.27
2018-02-09T09:16:55.063Z,103.50
2018-02-09T09:19:22.642Z,105.73
2018-02-09T09:21:50.115Z,97.17
2018-02-09T09:24:17.615Z,108.90
2018-02-09T09:26:45.864Z,109.00
2018-02-09T09:29:13.363Z,104.50
2018-02-09T09:31:41.607Z,94.37
2018-02-09T09:34:09.122Z,105.60
2018-02-09T09:36:37.372Z,95.50
2018-02-09T09:39:04.871Z,87.20
2018-02-09T09:41:33.119Z,105.50
2018-02-09T09:44:00.619Z,107.00
2018-02-09T09:46:28.899Z,105.10
2018-02-09T09:48:56.468Z,103.57
2018-02-09T09:51:23.946Z,106.47
2018-02-09T09:53:51.424Z,119.77
2018-02-09T09:56:18.916Z,110.63
2018-02-09T09:58:47.159Z,108.83
2018-02-09T10:01:20.355Z,106.90
2018-02-09T10:03:47.842Z,113.77
2018-02-09T10:06:15.346Z,101.93
2018-02-09T10:08:43.586Z,107.73
2018-02-09T10:11:11.098Z,103.97
2018-02-09T10:13:39.347Z,106.73
2018-02-09T10:16:06.843Z,106.23
2018-02-09T10:18:34.354Z,104.60
2018-02-09T10:21:01.911Z,103.87
2018-02-09T10:23:29.391Z,120.13
2018-02-09T10:25:56.890Z,103.03
2018-02-09T10:28:24.435Z,98.70
2018-02-09T10:30:51.978Z,114.40
2018-02-09T10:33:20.229Z,107.03
2018-02-09T10:35:47.731Z,97.57
2018-02-09T10:38:15.978Z,104.07
2018-02-09T10:40:43.483Z,101.97
2018-02-09T10:43:10.959Z,103.17
2018-02-09T10:45:39.233Z,99.60
2018-02-09T10:48:06.714Z,102.63
2018-02-09T10:50:34.202Z,91.53
2018-02-09T10:53:02.443Z,89.33
2018-02-09T10:55:29.935Z,101.17
2018-02-09T10:57:57.415Z,95.33
2018-02-09T11:00:31.227Z,94.70
2018-02-09T11:02:58.698Z,90.97
2018-02-09T11:05:26.203Z,108.50
2018-02-09T11:07:53.684Z,89.93
2018-02-09T11:10:37.070Z,93.73
2018-02-09T11:13:10.262Z,86.60
2018-02-09T11:15:37.758Z,92.30
2018-02-09T11:18:05.242Z,94.83
2018-02-09T11:20:33.498Z,79.20
2018-02-09T11:23:00.978Z,80.20
2018-02-09T11:25:28.485Z,100.77
2018-02-09T11:27:55.954Z,99.47
2018-02-09T11:30:23.451Z,89.43
2018-02-09T11:32:50.930Z,88.73
2018-02-09T11:35:18.427Z,96.13
2018-02-09T11:37:45.898Z,86.27
2018-02-09T11:40:13.426Z,97.60
2018-02-09T11:42:40.912Z,86.30
2018-02-09T11:45:08.407Z,84.40
2018-02-09T11:47:35.883Z,82.37
2018-02-09T11:50:03.383Z,79.07
2018-02-09T11:52:30.866Z,87.77
2018-02-09T11:54:58.363Z,87.63
2018-02-09T11:57:25.843Z,86.00
2018-02-09T11:59:53.339Z,88.90
2018-02-09T12:02:21.579Z,72.97
2018-02-09T12:04:49.083Z,114.97
2018-02-09T12:07:16.567Z,127.07
2018-02-09T12:09:44.058Z,84.67
2018-02-09T12:12:11.540Z,80.13
2018-02-09T12:14:39.055Z,97.80
2018-02-09T12:17:06.530Z,97.63
2018-02-09T12:19:34.007Z,90.33
2018-02-09T12:22:01.511Z,98.03
2018-02-09T12:24:28.986Z,73.77
2018-02-09T12:26:56.502Z,92.10
2018-02-09T12:29:23.976Z,83.60
2018-02-09T12:31:51.475Z,96.33
2018-02-09T12:34:19.720Z,81.60
2018-02-09T12:36:47.214Z,107.20
2018-02-09T12:39:14.699Z,89.37
2018-02-09T12:41:42.190Z,90.83
2018-02-09T12:44:09.663Z,87.70
2018-02-09T12:46:37.159Z,123.43
2018-02-09T12:49:04.646Z,151.27
2018-02-09T12:51:32.147Z,108.03
2018-02-09T12:53:59.682Z,90.60
2018-02-09T12:56:27.178Z,96.03
2018-02-09T12:58:54.656Z,98.30
2018-02-09T13:01:22.931Z,95.23
2018-02-09T13:03:50.413Z,87.93
2018-02-09T13:06:17.911Z,91.87
2018-02-09T13:08:45.391Z,100.70
2018-02-09T13:11:12.886Z,95.87
2018-02-09T13:13:40.366Z,100.00
2018-02-09T13:16:07.898Z,91.97
2018-02-09T13:18:47.139Z,90.23
2018-02-09T13:21:14.639Z,93.23
2018-02-09T13:23:53.879Z,104.50
2018-02-09T13:26:21.382Z,96.77
2018-02-09T13:28:59.640Z,87.60
2018-02-09T13:31:27.159Z,91.60
2018-02-09T13:33:54.644Z,97.53
2018-02-09T13:36:33.894Z,100.67
2018-02-09T13:39:01.385Z,102.13
2018-02-09T13:41:29.674Z,102.27
2018-02-09T13:43:57.935Z,102.27
2018-02-09T13:46:25.440Z,94.63
2018-02-09T13:48:53.687Z,96.70
2018-02-09T13:51:21.194Z,95.47
2018-02-09T13:53:49.441Z,93.43
2018-02-09T13:56:16.937Z,101.07
2018-02-09T13:58:44.481Z,129.27
2018-02-09T14:01:12.886Z,92.00
2018-02-09T14:03:40.379Z,97.37
2018-02-09T14:06:08.647Z,91.47
2018-02-09T14:08:36.159Z,88.90
2018-02-09T14:11:03.650Z,97.93
2018-02-09T14:13:31.139Z,103.47
2018-02-09T14:15:58.634Z,96.03
2018-02-09T14:18:26.905Z,91.87
2018-02-09T14:20:54.398Z,103.13
2018-02-09T14:23:21.923Z,105.13
2018-02-09T14:25:49.427Z,90.20
2018-02-09T14:28:16.943Z,96.47
2018-02-09T14:30:44.437Z,88.80
2018-02-09T14:33:11.910Z,87.77
2018-02-09T14:35:39.412Z,105.20
2018-02-09T14:38:06.886Z,93.17
2018-02-09T14:40:34.383Z,90.27
2018-02-09T14:43:01.863Z,98.00
2018-02-09T14:45:29.374Z,90.40
2018-02-09T14:47:56.851Z,96.50
2018-02-09T14:50:24.351Z,90.33
2018-02-09T14:52:52.600Z,82.20
2018-02-09T14:55:20.124Z,92.73
2018-02-09T14:57:47.611Z,94.77
2018-02-09T15:00:15.121Z,99.80
2018-02-09T15:02:42.648Z,85.67
2018-02-09T15:05:10.146Z,114.70
2018-02-09T15:07:37.642Z,94.60
2018-02-09T15:10:05.127Z,87.10
2018-02-09T15:12:33.401Z,89.67
2018-02-09T15:15:00.903Z,96.90
2018-02-09T15:17:28.408Z,87.20
2018-02-09T15:19:55.888Z,93.60
2018-02-09T15:22:23.382Z,90.03
2018-02-09T15:24:50.854Z,95.03
2018-02-09T15:27:18.354Z,85.87
2018-02-09T15:29:45.853Z,106.97
2018-02-09T15:32:13.404Z,102.37
2018-02-09T15:34:40.903Z,102.43
2018-02-09T15:37:08.398Z,95.70
2018-02-09T15:39:35.882Z,98.37
2018-02-09T15:42:03.378Z,98.70
2018-02-09T15:44:30.858Z,99.73
2018-02-09T15:46:58.353Z,99.80
2018-02-09T15:49:25.878Z,96.63
2018-02-09T15:51:53.391Z,95.30
2018-02-09T15:54:20.871Z,90.10
2018-02-09T15:56:48.366Z,92.83
2018-02-09T15:59:15.854Z,102.80
2018-02-09T16:01:44.143Z,99.33
2018-02-09T16:04:12.399Z,88.03
2018-02-09T16:06:39.909Z,86.67
2018-02-09T16:09:08.150Z,91.77
2018-02-09T16:11:35.652Z,106.67
2018-02-09T16:14:03.179Z,193.43
2018-02-09T16:16:30.686Z,133.63
2018-02-09T16:18:58.171Z,101.20
2018-02-09T16:21:26.439Z,83.30
2018-02-09T16:23:53.919Z,98.33
2018-02-09T16:26:22.188Z,83.53
2018-02-09T16:28:49.670Z,87.03
2018-02-09T16:31:17.176Z,79.67
2018-02-09T16:33:44.660Z,82.67
2018-02-09T16:36:12.204Z,85.33
2018-02-09T16:38:39.718Z,86.10
2018-02-09T16:41:07.219Z,75.73
2018-02-09T16:43:34.702Z,87.50
2018-02-09T16:46:02.966Z,89.43
2018-02-09T16:48:30.442Z,95.30
2018-02-09T16:50:57.951Z,91.73
2018-02-09T16:53:25.432Z,96.53
2018-02-09T16:55:52.935Z,97.70
2018-02-09T16:58:20.416Z,120.70
2018-02-09T17:00:47.919Z,151.23
2018-02-09T17:03:16.167Z,103.07
2018-02-09T17:05:43.645Z,106.43
2018-02-09T17:08:11.150Z,86.80
2018-02-09T17:10:38.626Z,140.57
2018-02-09T17:13:06.130Z,83.93
2018-02-09T17:15:33.611Z,98.43
2018-02-09T17:18:01.106Z,205.13
2018-02-09T17:20:28.594Z,138.70
2018-02-09T17:22:56.872Z,132.33
2018-02-09T17:25:25.110Z,97.63
2018-02-09T17:27:52.610Z,99.43
2018-02-09T17:30:20.098Z,113.90
2018-02-09T17:32:48.366Z,82.63
2018-02-09T17:35:15.855Z,77.70
2018-02-09T17:37:43.355Z,80.37
2018-02-09T17:40:10.834Z,91.77
2018-02-09T17:42:38.334Z,79.47
2018-02-09T17:45:05.816Z,90.50
2018-02-09T17:47:33.314Z,90.67
2018-02-09T17:50:01.559Z,86.63
2018-02-09T17:52:29.058Z,77.97
2018-02-09T17:54:56.547Z,80.60
2018-02-09T17:57:24.827Z,76.77
2018-02-09T17:59:53.074Z,79.90
2018-02-09T18:02:20.577Z,80.30
2018-02-09T18:04:48.059Z,81.20
2018-02-09T18:07:16.318Z,79.07
2018-02-09T18:09:43.800Z,76.00
2018-02-09T18:12:11.314Z,69.53
2018-02-09T18:14:38.792Z,72.23
2018-02-09T18:17:06.298Z,86.77
2018-02-09T18:19:33.784Z,79.43
2018-02-09T18:22:01.274Z,79.53
2018-02-09T18:24:29.515Z,92.90
2018-02-09T18:26:57.024Z,129.70
2018-02-09T18:29:25.267Z,92.40
2018-02-09T18:31:52.779Z,80.67
2018-02-09T18:34:21.019Z,86.97
2018-02-09T18:36:48.526Z,78.10
2018-02-09T18:39:16.038Z,75.50
2018-02-09T18:41:43.532Z,79.00
2018-02-09T18:44:11.039Z,82.87
2018-02-09T18:46:38.522Z,81.00
2018-02-09T18:49:06.786Z,75.20
2018-02-09T18:51:34.274Z,100.73
2018-02-09T18:54:01.774Z,76.70
2018-02-09T18:56:29.255Z,74.70
2018-02-09T18:58:56.769Z,90.77
2018-02-09T19:01:24.251Z,71.30
2018-02-09T19:03:51.751Z,79.30
2018-02-09T19:06:19.235Z,81.20
2018-02-09T19:08:46.735Z,81.33
2018-02-09T19:11:14.230Z,83.00
2018-02-09T19:13:41.721Z,82.30
2018-02-09T19:16:09.999Z,81.40
2018-02-09T19:18:38.250Z,70.90
2018-02-09T19:21:05.746Z,72.80
2018-02-09T19:23:33.230Z,82.00
2018-02-09T19:26:01.487Z,84.13
2018-02-09T19:28:29.030Z,92.03
2018-02-09T19:30:56.539Z,81.93
2018-02-09T19:33:24.018Z,70.87
2018-02-09T19:35:51.519Z,86.80
2018-02-09T19:38:19.004Z,77.27
2018-02-09T19:40:46.530Z,70.07
2018-02-09T19:43:14.023Z,79.90
2018-02-09T19:45:42.303Z,75.43
2018-02-09T19:48:10.542Z,69.57
2018-02-09T19:50:38.033Z,71.90
2018-02-09T19:53:05.552Z,74.37
2018-02-09T19:55:33.039Z,63.40
2018-02-09T19:58:00.562Z,78.70
2018-02-09T20:00:28.813Z,69.90
2018-02-09T20:02:56.315Z,67.50
2018-02-09T20:05:23.803Z,63.00
2018-02-09T20:07:52.074Z,65.83
2018-02-09T20:10:19.781Z,68.07
2018-02-09T20:12:48.055Z,71.03
2018-02-09T20:15:16.303Z,66.93
2018-02-09T20:17:43.798Z,65.10
2018-02-09T20:20:11.294Z,62.50
2018-02-09T20:22:38.786Z,57.57
2018-02-09T20:25:06.263Z,77.43
2018-02-09T20:27:33.767Z,81.40
2018-02-09T20:30:01.246Z,80.67
2018-02-09T20:32:29.523Z,73.60
2018-02-09T20:34:57.003Z,73.00
2018-02-09T20:37:24.498Z,70.93
2018-02-09T20:39:51.979Z,67.33
2018-02-09T20:42:19.479Z,74.77
2018-02-09T20:44:46.958Z,63.23
2018-02-09T20:47:14.463Z,71.83
2018-02-09T20:49:42.710Z,71.27
2018-02-09T20:52:10.213Z,112.07
2018-02-09T20:54:38.459Z,66.33
2018-02-09T20:57:05.968Z,74.13
2018-02-09T20:59:33.443Z,83.43
2018-02-09T21:02:01.707Z,70.50
2018-02-09T21:04:29.206Z,65.93
2018-02-09T21:06:57.502Z,72.17
2018-02-09T21:09:24.971Z,59.67
2018-02-09T21:11:53.275Z,67.90
2018-02-09T21:14:20.753Z,66.03
2018-02-09T21:16:48.257Z,73.13
2018-02-09T21:19:15.730Z,70.20
2018-02-09T21:21:43.226Z,62.40
2018-02-09T21:24:10.724Z,70.97
2018-02-09T21:26:38.198Z,71.73
2018-02-09T21:29:05.703Z,72.17
2018-02-09T21:31:33.183Z,65.57
2018-02-09T21:34:00.682Z,72.13
2018-02-09T21:36:28.923Z,71.17
2018-02-09T21:38:56.422Z,69.87
2018-02-09T21:41:23.902Z,64.00
2018-02-09T21:43:51.402Z,64.33
2018-02-09T21:46:18.879Z,67.83
2018-02-09T21:48:46.382Z,72.30
2018-02-09T21:51:13.866Z,68.47
2018-02-09T21:53:41.388Z,69.27
2018-02-09T21:56:08.867Z,71.87
2018-02-09T21:58:36.378Z,68.47
2018-02-09T22:01:03.854Z,61.57
2018-02-09T22:03:31.355Z,71.80
2018-02-09T22:05:59.598Z,65.57
2018-02-09T22:08:27.103Z,72.27
2018-02-09T22:10:55.356Z,74.33
2018-02-09T22:13:22.847Z,70.03
2018-02-09T22:15:50.323Z,60.67
2018-02-09T22:18:18.586Z,69.17
2018-02-09T22:20:46.067Z,67.03
2018-02-09T22:23:13.572Z,80.80
2018-02-09T22:25:41.055Z,81.60
2018-02-09T22:28:08.554Z,71.77
2018-02-09T22:30:36.031Z,71.13
2018-02-09T22:33:03.526Z,75.03
2018-02-09T22:35:31.003Z,73.63
2018-02-09T22:37:58.502Z,76.53
2018-02-09T22:40:25.983Z,64.80
2018-02-09T22:42:53.482Z,65.93
2018-02-09T22:45:20.964Z,72.30
2018-02-09T22:47:48.454Z,73.87
2018-02-09T22:50:16.700Z,74.03
2018-02-09T22:52:44.200Z,80.00
2018-02-09T22:55:11.673Z,76.60
2018-02-09T22:57:39.171Z,64.50
2018-02-09T23:00:06.744Z,66.83
2018-02-09T23:02:34.250Z,73.10
2018-02-09T23:05:01.732Z,79.50
2018-02-09T23:07:29.210Z,63.07
2018-02-09T23:09:56.712Z,73.77
2018-02-09T23:12:24.959Z,73.63
2018-02-09T23:14:52.464Z,70.43
2018-02-09T23:17:20.710Z,69.70
2018-02-09T23:19:48.214Z,78.87
2018-02-09T23:22:15.690Z,70.47
2018-02-09T23:24:43.959Z,72.20
2018-02-09T23:27:11.447Z,123.97
2018-02-09T23:29:39.738Z,130.90
2018-02-09T23:32:07.991Z,70.67
2018-02-09T23:34:35.487Z,80.07
2018-02-09T23:37:02.963Z,77.50
2018-02-09T23:39:31.211Z,69.70
2018-02-09T23:41:58.707Z,73.27
2018-02-09T23:44:26.186Z,74.83
2018-02-09T23:46:53.686Z,81.97
2018-02-09T23:49:21.165Z,74.63
2018-02-09T23:51:49.435Z,73.73
2018-02-09T23:54:17.679Z,68.70
2018-02-09T23:56:45.183Z,75.40
2018-02-09T23:59:12.686Z,78.50
